PWSweather.com
Personal Weather Stations
Station Observations
KVTSWANT6
Maquam ShoreCamp Maquam, Swanton, VT 05488

Maquam ShoreCamp MaquamSwanton, VT 05488

Lat: 44.90250015, Lon: -73.16666412

Elevation: 109

Station Type: W-1090

Latest ConditionsUpdated 3:50:00 PM EDT Friday, Aug 29, 2014
Currently Today's Max Today's Min Today's Average
Temperature 72.7°F22.6°C 72.7°F22.6°C 59.5°F15.3°C 62.5°F16.9°C
Dew Point 59.8°F15.4°C 60.9°F16.1°C 57.9°F14.4°C 59.0°F15.0°C
Winds 1.6 mph WSW2.6 kmh WSW 9.2 mph NW14.8 kmh NW - 3.6 mph 5.8 kmh
Wind Gusts 3.8 mph6.1 kmh 14.5 mph23.3 kmh - -
Humidity 64% 97% 64% 89%
Pressure 30.45 in1031.2 mb 30.51 in1033.2 mb 30.33 in1027.1 mb -
Hour Temp Dew Point Humidity Winds Wind Gusts Pressure Precip Precip Rate Daily Precip Total
03:50 PM 72.7°F22.6°C 59.8°F15.4°C 64% 1.6 mph WSW2.6 kmh WSW 3.8 mph6.1 kmh 30.45 in1031.2 mb 0.00 in0.0 mm 0.00 in/hr0.0 mm/hr 0.00 in0.0 mm
03:40 PM 70.3°F21.3°C 59.3°F15.2°C 68% 0.7 mph W1.1 kmh W 3.8 mph6.1 kmh 30.45 in1031.2 mb 0.00 in0.0 mm 0.00 in/hr0.0 mm/hr 0.00 in0.0 mm
03:30 PM 69.8°F21.0°C 59.2°F15.1°C 69% 1.6 mph WSW2.6 kmh WSW 3.8 mph6.1 kmh 30.45 in1031.2 mb 0.00 in0.0 mm 0.00 in/hr0.0 mm/hr 0.00 in0.0 mm
03:20 PM 70.2°F21.2°C 59.5°F15.3°C 69% 1.6 mph W2.6 kmh W 3.8 mph6.1 kmh 30.45 in1031.2 mb 0.00 in0.0 mm 0.00 in/hr0.0 mm/hr 0.00 in0.0 mm
03:10 PM 69.6°F20.9°C 59.8°F15.4°C 71% 2.2 mph WSW3.5 kmh WSW 3.8 mph6.1 kmh 30.46 in1031.5 mb 0.00 in0.0 mm 0.00 in/hr0.0 mm/hr 0.00 in0.0 mm
03:00 PM 69.3°F20.7°C 59.1°F15.1°C 70% 0.7 mph W1.1 kmh W 3.1 mph5.0 kmh 30.46 in1031.5 mb 0.00 in0.0 mm 0.00 in/hr0.0 mm/hr 0.00 in0.0 mm
02:50 PM 68.7°F20.4°C 59.7°F15.4°C 73% 1.6 mph WSW2.6 kmh WSW 5.4 mph8.7 kmh 30.47 in1031.8 mb 0.00 in0.0 mm 0.00 in/hr0.0 mm/hr 0.00 in0.0 mm
02:40 PM 68.4°F20.2°C 59.8°F15.4°C 74% 1.6 mph W2.6 kmh W 3.8 mph6.1 kmh 30.47 in1031.8 mb 0.00 in0.0 mm 0.00 in/hr0.0 mm/hr 0.00 in0.0 mm
02:30 PM 68.4°F20.2°C 60.9°F16.1°C 77% Calm Calm 3.1 mph5.0 kmh 30.47 in1031.8 mb 0.00 in0.0 mm 0.00 in/hr0.0 mm/hr 0.00 in0.0 mm
02:20 PM 67.3°F19.6°C 60.6°F15.9°C 79% 1.6 mph W2.6 kmh W 4.5 mph7.2 kmh 30.48 in1032.2 mb 0.00 in0.0 mm 0.00 in/hr0.0 mm/hr 0.00 in0.0 mm
02:10 PM 66.6°F19.2°C 60.2°F15.7°C 80% 0.7 mph W1.1 kmh W 4.5 mph7.2 kmh 30.48 in1032.2 mb 0.00 in0.0 mm 0.00 in/hr0.0 mm/hr 0.00 in0.0 mm
02:00 PM 66.6°F19.2°C 59.9°F15.5°C 79% 2.2 mph WSW3.5 kmh WSW 3.8 mph6.1 kmh 30.49 in1032.5 mb 0.00 in0.0 mm 0.00 in/hr0.0 mm/hr 0.00 in0.0 mm
01:50 PM 66.2°F19.0°C 59.2°F15.1°C 78% 1.6 mph WSW2.6 kmh WSW 3.8 mph6.1 kmh 30.49 in1032.5 mb 0.00 in0.0 mm 0.00 in/hr0.0 mm/hr 0.00 in0.0 mm
01:40 PM 65.7°F18.7°C 59.0°F15.0°C 79% 1.6 mph SW2.6 kmh SW 4.5 mph7.2 kmh 30.49 in1032.5 mb 0.00 in0.0 mm 0.00 in/hr0.0 mm/hr 0.00 in0.0 mm
01:30 PM 65.1°F18.4°C 58.8°F14.9°C 80% 2.2 mph WSW3.5 kmh WSW 4.5 mph7.2 kmh 30.49 in1032.5 mb 0.00 in0.0 mm 0.00 in/hr0.0 mm/hr 0.00 in0.0 mm
01:20 PM 64.8°F18.2°C 59.2°F15.1°C 82% 2.2 mph W3.5 kmh W 3.8 mph6.1 kmh 30.49 in1032.5 mb 0.00 in0.0 mm 0.00 in/hr0.0 mm/hr 0.00 in0.0 mm
01:10 PM 64.6°F18.1°C 59.0°F15.0°C 82% 1.6 mph W2.6 kmh W 3.1 mph5.0 kmh 30.49 in1032.5 mb 0.00 in0.0 mm 0.00 in/hr0.0 mm/hr 0.00 in0.0 mm
01:00 PM 63.9°F17.7°C 59.6°F15.3°C 86% 1.6 mph W2.6 kmh W 3.8 mph6.1 kmh 30.49 in1032.5 mb 0.00 in0.0 mm 0.00 in/hr0.0 mm/hr 0.00 in0.0 mm
12:50 PM 63.3°F17.4°C 59.4°F15.2°C 87% 1.6 mph W2.6 kmh W 3.8 mph6.1 kmh 30.50 in1032.8 mb 0.00 in0.0 mm 0.00 in/hr0.0 mm/hr 0.00 in0.0 mm
12:40 PM 63.0°F17.2°C 59.4°F15.2°C 88% 2.2 mph W3.5 kmh W 3.8 mph6.1 kmh 30.50 in1032.8 mb 0.00 in0.0 mm 0.00 in/hr0.0 mm/hr 0.00 in0.0 mm
12:30 PM 62.4°F16.9°C 59.2°F15.1°C 89% 2.2 mph W3.5 kmh W 5.4 mph8.7 kmh 30.50 in1032.8 mb 0.00 in0.0 mm 0.00 in/hr0.0 mm/hr 0.00 in0.0 mm
12:20 PM 62.1°F16.7°C 58.8°F14.9°C 89% 1.6 mph WNW2.6 kmh WNW 5.4 mph8.7 kmh 30.50 in1032.8 mb 0.00 in0.0 mm 0.00 in/hr0.0 mm/hr 0.00 in0.0 mm
12:10 PM 61.9°F16.6°C 58.6°F14.8°C 89% 2.2 mph W3.5 kmh W 4.5 mph7.2 kmh 30.51 in1033.2 mb 0.00 in0.0 mm 0.00 in/hr0.0 mm/hr 0.00 in0.0 mm
12:00 PM 61.9°F16.6°C 58.6°F14.8°C 89% 1.6 mph NW2.6 kmh NW 3.1 mph5.0 kmh 30.50 in1032.8 mb 0.00 in0.0 mm 0.00 in/hr0.0 mm/hr 0.00 in0.0 mm
11:50 AM 61.7°F16.5°C 58.4°F14.7°C 89% 0.7 mph NW1.1 kmh NW 3.1 mph5.0 kmh 30.50 in1032.8 mb 0.00 in0.0 mm 0.00 in/hr0.0 mm/hr 0.00 in0.0 mm
11:40 AM 61.9°F16.6°C 58.3°F14.6°C 88% Calm Calm 3.1 mph5.0 kmh 30.50 in1032.8 mb 0.00 in0.0 mm 0.00 in/hr0.0 mm/hr 0.00 in0.0 mm
11:30 AM 61.3°F16.3°C 58.4°F14.7°C 90% 1.6 mph NW2.6 kmh NW 3.8 mph6.1 kmh 30.50 in1032.8 mb 0.00 in0.0 mm 0.00 in/hr0.0 mm/hr 0.00 in0.0 mm
11:20 AM 61.0°F16.1°C 58.0°F14.4°C 90% 2.2 mph NW3.5 kmh NW 4.5 mph7.2 kmh 30.50 in1032.8 mb 0.00 in0.0 mm 0.00 in/hr0.0 mm/hr 0.00 in0.0 mm
11:10 AM 61.0°F16.1°C 58.3°F14.6°C 91% 0.7 mph NW1.1 kmh NW 6.0 mph9.7 kmh 30.50 in1032.8 mb 0.00 in0.0 mm 0.00 in/hr0.0 mm/hr 0.00 in0.0 mm
11:00 AM 60.4°F15.8°C 58.4°F14.7°C 93% 3.1 mph NW5.0 kmh NW 4.5 mph7.2 kmh 30.50 in1032.8 mb 0.00 in0.0 mm 0.00 in/hr0.0 mm/hr 0.00 in0.0 mm
10:50 AM 60.6°F15.9°C 58.3°F14.6°C 92% 3.1 mph NNW5.0 kmh NNW 5.4 mph8.7 kmh 30.51 in1033.2 mb 0.00 in0.0 mm 0.00 in/hr0.0 mm/hr 0.00 in0.0 mm
10:40 AM 60.3°F15.7°C 58.5°F14.7°C 94% 1.6 mph NW2.6 kmh NW 6.0 mph9.7 kmh 30.51 in1033.2 mb 0.00 in0.0 mm 0.00 in/hr0.0 mm/hr 0.00 in0.0 mm
10:30 AM 60.8°F16.0°C 58.5°F14.7°C 92% 2.2 mph NW3.5 kmh NW 4.5 mph7.2 kmh 30.50 in1032.8 mb 0.00 in0.0 mm 0.00 in/hr0.0 mm/hr 0.00 in0.0 mm
10:20 AM 60.1°F15.6°C 58.4°F14.7°C 94% 2.2 mph NW3.5 kmh NW 5.4 mph8.7 kmh 30.51 in1033.2 mb 0.00 in0.0 mm 0.00 in/hr0.0 mm/hr 0.00 in0.0 mm
10:10 AM 59.9°F15.5°C 58.2°F14.6°C 94% 3.1 mph NNW5.0 kmh NNW 6.9 mph11.1 kmh 30.51 in1033.2 mb 0.00 in0.0 mm 0.00 in/hr0.0 mm/hr 0.00 in0.0 mm
10:00 AM 59.9°F15.5°C 58.2°F14.6°C 94% 3.1 mph NNW5.0 kmh NNW 5.4 mph8.7 kmh 30.51 in1033.2 mb 0.00 in0.0 mm 0.00 in/hr0.0 mm/hr 0.00 in0.0 mm
09:50 AM 59.7°F15.4°C 58.3°F14.6°C 95% 3.8 mph NNW6.1 kmh NNW 6.9 mph11.1 kmh 30.51 in1033.2 mb 0.00 in0.0 mm 0.00 in/hr0.0 mm/hr 0.00 in0.0 mm
09:40 AM 59.5°F15.3°C 58.1°F14.5°C 95% 4.5 mph NW7.2 kmh NW 6.9 mph11.1 kmh 30.50 in1032.8 mb 0.00 in0.0 mm 0.00 in/hr0.0 mm/hr 0.00 in0.0 mm
09:30 AM 59.9°F15.5°C 58.2°F14.6°C 94% 3.1 mph NNW5.0 kmh NNW 6.9 mph11.1 kmh 30.50 in1032.8 mb 0.00 in0.0 mm 0.00 in/hr0.0 mm/hr 0.00 in0.0 mm
09:20 AM 59.7°F15.4°C 58.6°F14.8°C 96% 2.2 mph N3.5 kmh N 9.2 mph14.8 kmh 30.49 in1032.5 mb 0.00 in0.0 mm 0.00 in/hr0.0 mm/hr 0.00 in0.0 mm
09:10 AM 59.7°F15.4°C 58.3°F14.6°C 95% 6.0 mph NNW9.7 kmh NNW 9.2 mph14.8 kmh 30.49 in1032.5 mb 0.00 in0.0 mm 0.00 in/hr0.0 mm/hr 0.00 in0.0 mm
09:00 AM 60.3°F15.7°C 58.5°F14.7°C 94% 2.2 mph NNW3.5 kmh NNW 5.4 mph8.7 kmh 30.48 in1032.2 mb 0.00 in0.0 mm 0.00 in/hr0.0 mm/hr 0.00 in0.0 mm
08:50 AM 60.4°F15.8°C 58.7°F14.8°C 94% 1.6 mph NW2.6 kmh NW 3.8 mph6.1 kmh 30.48 in1032.2 mb 0.00 in0.0 mm 0.00 in/hr0.0 mm/hr 0.00 in0.0 mm
08:40 AM 60.3°F15.7°C 58.5°F14.7°C 94% 0.7 mph NW1.1 kmh NW 3.8 mph6.1 kmh 30.48 in1032.2 mb 0.00 in0.0 mm 0.00 in/hr0.0 mm/hr 0.00 in0.0 mm
08:30 AM 60.1°F15.6°C 58.1°F14.5°C 93% 1.6 mph NW2.6 kmh NW 4.5 mph7.2 kmh 30.48 in1032.2 mb 0.00 in0.0 mm 0.00 in/hr0.0 mm/hr 0.00 in0.0 mm
08:20 AM 60.3°F15.7°C 58.2°F14.6°C 93% 0.7 mph NNW1.1 kmh NNW 4.5 mph7.2 kmh 30.47 in1031.8 mb 0.00 in0.0 mm 0.00 in/hr0.0 mm/hr 0.00 in0.0 mm
08:10 AM 59.9°F15.5°C 58.5°F14.7°C 95% 1.6 mph NW2.6 kmh NW 6.0 mph9.7 kmh 30.47 in1031.8 mb 0.00 in0.0 mm 0.00 in/hr0.0 mm/hr 0.00 in0.0 mm
08:00 AM 59.9°F15.5°C 58.2°F14.6°C 94% 5.4 mph NNW8.7 kmh NNW 7.6 mph12.2 kmh 30.46 in1031.5 mb 0.00 in0.0 mm 0.00 in/hr0.0 mm/hr 0.00 in0.0 mm
07:50 AM 59.7°F15.4°C 58.0°F14.4°C 94% 3.1 mph NW5.0 kmh NW 6.0 mph9.7 kmh 30.46 in1031.5 mb 0.00 in0.0 mm 0.00 in/hr0.0 mm/hr 0.00 in0.0 mm
07:40 AM 59.9°F15.5°C 57.9°F14.4°C 93% 3.8 mph NNW6.1 kmh NNW 6.0 mph9.7 kmh 30.46 in1031.5 mb 0.00 in0.0 mm 0.00 in/hr0.0 mm/hr 0.00 in0.0 mm
07:30 AM 59.9°F15.5°C 58.2°F14.6°C 94% 3.8 mph N6.1 kmh N 6.9 mph11.1 kmh 30.46 in1031.5 mb 0.00 in0.0 mm 0.00 in/hr0.0 mm/hr 0.00 in0.0 mm
07:20 AM 59.5°F15.3°C 58.1°F14.5°C 95% 3.1 mph NNW5.0 kmh NNW 6.9 mph11.1 kmh 30.46 in1031.5 mb 0.00 in0.0 mm 0.00 in/hr0.0 mm/hr 0.00 in0.0 mm
07:10 AM 59.7°F15.4°C 58.9°F14.9°C 97% 2.2 mph N3.5 kmh N 8.3 mph13.4 kmh 30.46 in1031.5 mb 0.00 in0.0 mm 0.00 in/hr0.0 mm/hr 0.00 in0.0 mm
07:00 AM 59.7°F15.4°C 58.6°F14.8°C 96% 3.1 mph NNW5.0 kmh NNW 8.3 mph13.4 kmh 30.46 in1031.5 mb 0.00 in0.0 mm 0.00 in/hr0.0 mm/hr 0.00 in0.0 mm
06:50 AM 59.5°F15.3°C 58.4°F14.7°C 96% 4.5 mph N7.2 kmh N 8.3 mph13.4 kmh 30.45 in1031.2 mb 0.00 in0.0 mm 0.00 in/hr0.0 mm/hr 0.00 in0.0 mm
06:40 AM 59.7°F15.4°C 58.6°F14.8°C 96% 4.5 mph N7.2 kmh N 9.8 mph15.8 kmh 30.45 in1031.2 mb 0.00 in0.0 mm 0.00 in/hr0.0 mm/hr 0.00 in0.0 mm
06:30 AM 59.7°F15.4°C 58.0°F14.4°C 94% 6.9 mph NNW11.1 kmh NNW 10.7 mph17.2 kmh 30.45 in1031.2 mb 0.00 in0.0 mm 0.00 in/hr0.0 mm/hr 0.00 in0.0 mm
06:20 AM 59.9°F15.5°C 58.8°F14.9°C 96% 5.4 mph N8.7 kmh N 9.2 mph14.8 kmh 30.44 in1030.8 mb 0.00 in0.0 mm 0.00 in/hr0.0 mm/hr 0.00 in0.0 mm
06:10 AM 59.9°F15.5°C 58.2°F14.6°C 94% 4.5 mph N7.2 kmh N 9.8 mph15.8 kmh 30.44 in1030.8 mb 0.00 in0.0 mm 0.00 in/hr0.0 mm/hr 0.00 in0.0 mm
06:00 AM 60.3°F15.7°C 58.5°F14.7°C 94% 6.0 mph N9.7 kmh N 9.8 mph15.8 kmh 30.43 in1030.5 mb 0.00 in0.0 mm 0.00 in/hr0.0 mm/hr 0.00 in0.0 mm
05:50 AM 60.4°F15.8°C 58.7°F14.8°C 94% 7.6 mph NNW12.2 kmh NNW 10.7 mph17.2 kmh 30.43 in1030.5 mb 0.00 in0.0 mm 0.00 in/hr0.0 mm/hr 0.00 in0.0 mm
05:40 AM 60.8°F16.0°C 59.1°F15.1°C 94% 6.9 mph NNW11.1 kmh NNW 11.4 mph18.3 kmh 30.42 in1030.1 mb 0.00 in0.0 mm 0.00 in/hr0.0 mm/hr 0.00 in0.0 mm
05:30 AM 60.8°F16.0°C 59.1°F15.1°C 94% 7.6 mph NNW12.2 kmh NNW 9.8 mph15.8 kmh 30.42 in1030.1 mb 0.00 in0.0 mm 0.00 in/hr0.0 mm/hr 0.00 in0.0 mm
05:20 AM 60.3°F15.7°C 58.8°F14.9°C 95% 5.4 mph NNW8.7 kmh NNW 8.3 mph13.4 kmh 30.41 in1029.8 mb 0.00 in0.0 mm 0.00 in/hr0.0 mm/hr 0.00 in0.0 mm
05:10 AM 60.1°F15.6°C 58.1°F14.5°C 93% 2.2 mph N3.5 kmh N 8.3 mph13.4 kmh 30.41 in1029.8 mb 0.00 in0.0 mm 0.00 in/hr0.0 mm/hr 0.00 in0.0 mm
05:00 AM 60.4°F15.8°C 58.1°F14.5°C 92% 3.8 mph NE6.1 kmh NE 5.4 mph8.7 kmh 30.40 in1029.5 mb 0.00 in0.0 mm 0.00 in/hr0.0 mm/hr 0.00 in0.0 mm
04:50 AM 61.3°F16.3°C 59.6°F15.3°C 94% 4.5 mph NNW7.2 kmh NNW 9.8 mph15.8 kmh 30.41 in1029.8 mb 0.00 in0.0 mm 0.00 in/hr0.0 mm/hr 0.00 in0.0 mm
04:40 AM 61.5°F16.4°C 60.1°F15.6°C 95% 6.0 mph NW9.7 kmh NW 10.7 mph17.2 kmh 30.40 in1029.5 mb 0.00 in0.0 mm 0.00 in/hr0.0 mm/hr 0.00 in0.0 mm
04:30 AM 60.6°F15.9°C 58.6°F14.8°C 93% 5.4 mph N8.7 kmh N 9.2 mph14.8 kmh 30.40 in1029.5 mb 0.00 in0.0 mm 0.00 in/hr0.0 mm/hr 0.00 in0.0 mm
04:20 AM 60.6°F15.9°C 58.6°F14.8°C 93% 5.4 mph NW8.7 kmh NW 8.3 mph13.4 kmh 30.39 in1029.1 mb 0.00 in0.0 mm 0.00 in/hr0.0 mm/hr 0.00 in0.0 mm
04:10 AM 60.8°F16.0°C 58.2°F14.6°C 91% 4.5 mph NNW7.2 kmh NNW 10.7 mph17.2 kmh 30.39 in1029.1 mb 0.00 in0.0 mm 0.00 in/hr0.0 mm/hr 0.00 in0.0 mm
04:00 AM 61.3°F16.3°C 58.7°F14.8°C 91% 3.8 mph N6.1 kmh N 11.4 mph18.3 kmh 30.39 in1029.1 mb 0.00 in0.0 mm 0.00 in/hr0.0 mm/hr 0.00 in0.0 mm
03:50 AM 61.5°F16.4°C 58.9°F14.9°C 91% 7.6 mph NNW12.2 kmh NNW 12.1 mph19.5 kmh 30.39 in1029.1 mb 0.00 in0.0 mm 0.00 in/hr0.0 mm/hr 0.00 in0.0 mm
03:40 AM 61.5°F16.4°C 59.2°F15.1°C 92% 6.0 mph NNW9.7 kmh NNW 9.8 mph15.8 kmh 30.38 in1028.8 mb 0.00 in0.0 mm 0.00 in/hr0.0 mm/hr 0.00 in0.0 mm
03:30 AM 61.5°F16.4°C 58.9°F14.9°C 91% 5.4 mph NNW8.7 kmh NNW 10.7 mph17.2 kmh 30.38 in1028.8 mb 0.00 in0.0 mm 0.00 in/hr0.0 mm/hr 0.00 in0.0 mm
03:20 AM 61.7°F16.5°C 59.1°F15.1°C 91% 6.0 mph N9.7 kmh N 9.2 mph14.8 kmh 30.38 in1028.8 mb 0.00 in0.0 mm 0.00 in/hr0.0 mm/hr 0.00 in0.0 mm
03:10 AM 61.9°F16.6°C 58.6°F14.8°C 89% 6.0 mph N9.7 kmh N 11.4 mph18.3 kmh 30.37 in1028.4 mb 0.00 in0.0 mm 0.00 in/hr0.0 mm/hr 0.00 in0.0 mm
03:00 AM 62.2°F16.8°C 59.0°F15.0°C 89% 6.9 mph NW11.1 kmh NW 11.4 mph18.3 kmh 30.37 in1028.4 mb 0.00 in0.0 mm 0.00 in/hr0.0 mm/hr 0.00 in0.0 mm
02:50 AM 62.2°F16.8°C 58.7°F14.8°C 88% 6.0 mph NNW9.7 kmh NNW 9.8 mph15.8 kmh 30.37 in1028.4 mb 0.00 in0.0 mm 0.00 in/hr0.0 mm/hr 0.00 in0.0 mm
02:40 AM 62.2°F16.8°C 58.7°F14.8°C 88% 0.7 mph NNW1.1 kmh NNW 7.6 mph12.2 kmh 30.36 in1028.1 mb 0.00 in0.0 mm 0.00 in/hr0.0 mm/hr 0.00 in0.0 mm
02:30 AM 62.6°F17.0°C 58.7°F14.8°C 87% 1.6 mph NNW2.6 kmh NNW 9.8 mph15.8 kmh 30.36 in1028.1 mb 0.00 in0.0 mm 0.00 in/hr0.0 mm/hr 0.00 in0.0 mm
02:20 AM 62.8°F17.1°C 59.5°F15.3°C 89% 5.4 mph NW8.7 kmh NW 8.3 mph13.4 kmh 30.36 in1028.1 mb 0.00 in0.0 mm 0.00 in/hr0.0 mm/hr 0.00 in0.0 mm
02:10 AM 62.6°F17.0°C 59.0°F15.0°C 88% 4.5 mph NNW7.2 kmh NNW 6.9 mph11.1 kmh 30.36 in1028.1 mb 0.00 in0.0 mm 0.00 in/hr0.0 mm/hr 0.00 in0.0 mm
02:00 AM 63.1°F17.3°C 59.9°F15.5°C 89% 3.1 mph NW5.0 kmh NW 9.2 mph14.8 kmh 30.35 in1027.8 mb 0.00 in0.0 mm 0.00 in/hr0.0 mm/hr 0.00 in0.0 mm
01:50 AM 63.0°F17.2°C 59.4°F15.2°C 88% 5.4 mph NW8.7 kmh NW 9.8 mph15.8 kmh 30.35 in1027.8 mb 0.00 in0.0 mm 0.00 in/hr0.0 mm/hr 0.00 in0.0 mm
01:40 AM 63.0°F17.2°C 59.7°F15.4°C 89% 4.5 mph NW7.2 kmh NW 9.2 mph14.8 kmh 30.35 in1027.8 mb 0.00 in0.0 mm 0.00 in/hr0.0 mm/hr 0.00 in0.0 mm
01:30 AM 63.0°F17.2°C 59.4°F15.2°C 88% 6.0 mph NW9.7 kmh NW 10.7 mph17.2 kmh 30.35 in1027.8 mb 0.00 in0.0 mm 0.00 in/hr0.0 mm/hr 0.00 in0.0 mm
01:20 AM 63.3°F17.4°C 60.0°F15.6°C 89% 5.4 mph NW8.7 kmh NW 11.4 mph18.3 kmh 30.34 in1027.4 mb 0.00 in0.0 mm 0.00 in/hr0.0 mm/hr 0.00 in0.0 mm
01:10 AM 63.3°F17.4°C 59.7°F15.4°C 88% 7.6 mph NW12.2 kmh NW 9.8 mph15.8 kmh 30.34 in1027.4 mb 0.00 in0.0 mm 0.00 in/hr0.0 mm/hr 0.00 in0.0 mm
01:00 AM 63.9°F17.7°C 60.6°F15.9°C 89% 6.9 mph NW11.1 kmh NW 10.7 mph17.2 kmh 30.34 in1027.4 mb 0.00 in0.0 mm 0.00 in/hr0.0 mm/hr 0.00 in0.0 mm
12:50 AM 63.9°F17.7°C 59.6°F15.3°C 86% 6.0 mph NW9.7 kmh NW 12.1 mph19.5 kmh 30.34 in1027.4 mb 0.00 in0.0 mm 0.00 in/hr0.0 mm/hr 0.00 in0.0 mm
12:40 AM 64.2°F17.9°C 60.0°F15.6°C 86% 7.6 mph NW12.2 kmh NW 11.4 mph18.3 kmh 30.34 in1027.4 mb 0.00 in0.0 mm 0.00 in/hr0.0 mm/hr 0.00 in0.0 mm
12:30 AM 64.4°F18.0°C 60.8°F16.0°C 88% 9.2 mph NW14.8 kmh NW 14.5 mph23.3 kmh 30.34 in1027.4 mb 0.00 in0.0 mm 0.00 in/hr0.0 mm/hr 0.00 in0.0 mm
12:20 AM 64.4°F18.0°C 60.1°F15.6°C 86% 9.2 mph NW14.8 kmh NW 11.4 mph18.3 kmh 30.33 in1027.1 mb 0.00 in0.0 mm 0.00 in/hr0.0 mm/hr 0.00 in0.0 mm
12:10 AM 64.2°F17.9°C 60.3°F15.7°C 87% 7.6 mph NW12.2 kmh NW 12.1 mph19.5 kmh 30.33 in1027.1 mb 0.00 in0.0 mm 0.00 in/hr0.0 mm/hr 0.00 in0.0 mm
12:00 AM 64.6°F18.1°C 60.6°F15.9°C 87% 6.0 mph NW9.7 kmh NW 9.8 mph15.8 kmh 30.33 in1027.1 mb 0.00 in0.0 mm 0.00 in/hr0.0 mm/hr 0.00 in0.0 mm